createdAt,value
2022-10-06T00:00:07.140Z,82.64
2022-10-06T00:01:07.212Z,83.24
2022-10-06T00:02:07.239Z,84.05
2022-10-06T00:03:07.129Z,84.09
2022-10-06T00:04:07.100Z,84.40
2022-10-06T00:05:07.915Z,84.30
2022-10-06T00:06:07.069Z,84.91
2022-10-06T00:07:07.088Z,84.70
2022-10-06T00:08:09.968Z,84.60
2022-10-06T00:09:07.048Z,85.01
2022-10-06T00:10:07.046Z,85.31
2022-10-06T00:11:07.048Z,85.55
2022-10-06T00:12:06.999Z,85.76
2022-10-06T00:13:07.014Z,85.96
2022-10-06T00:14:07.001Z,85.76
2022-10-06T00:15:06.996Z,85.86
2022-10-06T00:16:06.994Z,86.57
2022-10-06T00:17:06.952Z,86.27
2022-10-06T00:18:06.947Z,86.37
2022-10-06T00:19:06.939Z,87.08
2022-10-06T00:20:06.907Z,86.98
2022-10-06T00:21:07.790Z,87.29
2022-10-06T00:22:06.914Z,87.53
2022-10-06T00:23:06.860Z,87.53
2022-10-06T00:24:06.872Z,87.43
2022-10-06T00:25:06.859Z,87.93
2022-10-06T00:26:06.853Z,88.04
2022-10-06T00:27:06.851Z,87.63
2022-10-06T00:28:06.868Z,87.84
2022-10-06T00:29:06.789Z,87.93
2022-10-06T00:30:06.800Z,87.93
2022-10-06T00:31:06.849Z,87.93
2022-10-06T00:32:06.781Z,88.34
2022-10-06T00:33:06.759Z,88.44
2022-10-06T00:34:06.761Z,88.54
2022-10-06T00:35:06.726Z,88.75
2022-10-06T00:36:06.809Z,89.26
2022-10-06T00:37:06.699Z,89.36
2022-10-06T00:38:06.705Z,89.76
2022-10-06T00:39:06.682Z,89.76
2022-10-06T00:40:06.676Z,90.01
2022-10-06T00:41:06.652Z,90.11
2022-10-06T00:42:06.678Z,90.31
2022-10-06T00:43:06.655Z,90.52
2022-10-06T00:44:06.629Z,90.31
2022-10-06T00:45:06.602Z,90.42
2022-10-06T00:46:06.699Z,90.62
2022-10-06T00:47:06.625Z,91.03
2022-10-06T00:48:06.598Z,91.23
2022-10-06T00:49:06.570Z,90.92
2022-10-06T00:50:06.559Z,91.13
2022-10-06T00:51:06.561Z,91.53
2022-10-06T00:52:06.544Z,91.74
2022-10-06T00:53:06.509Z,91.84
2022-10-06T00:54:06.526Z,91.94
2022-10-06T00:55:06.492Z,92.04
2022-10-06T00:56:06.494Z,91.78
2022-10-06T00:57:06.479Z,91.99
2022-10-06T00:58:06.498Z,92.19
2022-10-06T00:59:06.465Z,92.40
2022-10-06T01:00:06.459Z,92.70
2022-10-06T01:01:06.478Z,92.70
2022-10-06T01:02:06.439Z,92.70
2022-10-06T01:03:06.423Z,92.80
2022-10-06T01:04:06.418Z,93.01
2022-10-06T01:05:06.372Z,93.01
2022-10-06T01:06:06.420Z,92.90
2022-10-06T01:07:06.449Z,92.90
2022-10-06T01:08:06.360Z,92.90
2022-10-06T01:09:06.368Z,93.05
2022-10-06T01:10:06.352Z,93.05
2022-10-06T01:11:06.303Z,93.05
2022-10-06T01:12:06.322Z,93.25
2022-10-06T01:13:06.291Z,93.45
2022-10-06T01:14:06.306Z,93.66
2022-10-06T01:15:06.271Z,93.86
2022-10-06T01:16:06.349Z,93.76
2022-10-06T01:17:06.277Z,93.66
2022-10-06T01:18:06.291Z,93.76
2022-10-06T01:19:06.237Z,94.01
2022-10-06T01:20:06.243Z,94.21
2022-10-06T01:21:06.211Z,94.42
2022-10-06T01:22:06.226Z,94.52
2022-10-06T01:23:06.195Z,94.52
2022-10-06T01:24:06.173Z,94.62
2022-10-06T01:25:06.170Z,94.72
2022-10-06T01:26:06.159Z,94.42
2022-10-06T01:27:06.309Z,94.31
2022-10-06T01:28:06.234Z,93.90
2022-10-06T01:29:06.100Z,94.11
2022-10-06T01:30:06.100Z,94.01
2022-10-06T01:31:06.184Z,93.80
2022-10-06T01:32:06.080Z,93.60
2022-10-06T01:33:06.079Z,93.70
2022-10-06T01:34:06.082Z,93.80
2022-10-06T01:35:06.037Z,93.70
2022-10-06T01:36:06.040Z,93.33
2022-10-06T01:37:06.045Z,93.24
2022-10-06T01:38:06.020Z,93.13
2022-10-06T01:39:06.000Z,93.13
2022-10-06T01:40:06.049Z,93.13
2022-10-06T01:41:05.993Z,93.24
2022-10-06T01:42:05.991Z,93.33
2022-10-06T01:43:05.947Z,93.44
2022-10-06T01:44:05.971Z,93.54
2022-10-06T01:45:05.925Z,93.74
2022-10-06T01:46:05.997Z,93.24
2022-10-06T01:47:06.703Z,93.24
2022-10-06T01:48:05.908Z,93.44
2022-10-06T01:49:05.884Z,93.54
2022-10-06T01:50:05.891Z,93.64
2022-10-06T01:51:05.880Z,93.74
2022-10-06T01:52:05.898Z,93.44
2022-10-06T01:53:05.847Z,93.13
2022-10-06T01:54:05.840Z,93.13
2022-10-06T01:55:05.847Z,93.13
2022-10-06T01:56:05.855Z,93.24
2022-10-06T01:57:05.791Z,93.33
2022-10-06T01:58:05.801Z,93.44
2022-10-06T01:59:05.768Z,93.54
2022-10-06T02:00:05.778Z,93.74
2022-10-06T02:01:05.778Z,93.95
2022-10-06T02:02:05.883Z,93.85
2022-10-06T02:03:05.735Z,93.74
2022-10-06T02:04:05.845Z,93.64
2022-10-06T02:05:05.735Z,93.44
2022-10-06T02:06:05.848Z,93.44
2022-10-06T02:07:05.805Z,93.54
2022-10-06T02:08:05.811Z,93.54
2022-10-06T02:09:05.863Z,93.54
2022-10-06T02:10:05.697Z,93.74
2022-10-06T02:11:05.640Z,93.74
2022-10-06T02:12:05.657Z,93.74
2022-10-06T02:13:05.641Z,93.74
2022-10-06T02:14:05.616Z,93.74
2022-10-06T02:15:05.649Z,93.64
2022-10-06T02:16:05.638Z,93.24
2022-10-06T02:17:05.590Z,93.33
2022-10-06T02:18:05.601Z,93.13
2022-10-06T02:19:05.547Z,92.93
2022-10-06T02:20:05.570Z,93.13
2022-10-06T02:21:06.248Z,93.24
2022-10-06T02:22:05.559Z,92.93
2022-10-06T02:23:05.510Z,93.03
2022-10-06T02:24:05.512Z,93.13
2022-10-06T02:25:05.524Z,93.24
2022-10-06T02:26:05.488Z,93.44
2022-10-06T02:27:05.479Z,93.44
2022-10-06T02:28:05.554Z,93.24
2022-10-06T02:29:05.510Z,93.03
2022-10-06T02:30:05.450Z,93.03
2022-10-06T02:31:05.478Z,93.03
2022-10-06T02:32:05.439Z,93.03
2022-10-06T02:33:05.412Z,92.93
2022-10-06T02:34:05.422Z,93.03
2022-10-06T02:35:05.400Z,92.83
2022-10-06T02:36:05.378Z,92.93
2022-10-06T02:37:05.384Z,92.83
2022-10-06T02:38:05.382Z,92.63
2022-10-06T02:39:05.360Z,92.72
2022-10-06T02:40:05.360Z,92.63
2022-10-06T02:41:05.395Z,92.67
2022-10-06T02:42:05.319Z,92.67
2022-10-06T02:43:05.316Z,92.57
2022-10-06T02:44:05.297Z,92.67
2022-10-06T02:45:05.261Z,92.67
2022-10-06T02:46:05.394Z,92.87
2022-10-06T02:47:05.274Z,92.97
2022-10-06T02:48:05.254Z,92.81
2022-10-06T02:49:05.290Z,92.71
2022-10-06T02:50:05.238Z,92.91
2022-10-06T02:51:05.196Z,93.12
2022-10-06T02:52:05.219Z,93.12
2022-10-06T02:53:05.202Z,93.02
2022-10-06T02:54:05.172Z,93.02
2022-10-06T02:55:05.150Z,92.81
2022-10-06T02:56:05.167Z,92.71
2022-10-06T02:57:05.178Z,92.91
2022-10-06T02:58:05.141Z,93.12
2022-10-06T02:59:05.110Z,93.22
2022-10-06T03:00:05.138Z,93.02
2022-10-06T03:01:05.083Z,93.12
2022-10-06T03:02:05.249Z,93.22
2022-10-06T03:03:05.135Z,93.12
2022-10-06T03:04:05.124Z,93.22
2022-10-06T03:05:05.070Z,93.12
2022-10-06T03:06:05.043Z,93.02
2022-10-06T03:07:05.080Z,93.02
2022-10-06T03:08:05.020Z,93.02
2022-10-06T03:09:05.731Z,93.02
2022-10-06T03:10:05.022Z,93.22
2022-10-06T03:11:05.019Z,93.32
2022-10-06T03:12:04.976Z,93.37
2022-10-06T03:13:04.998Z,93.22
2022-10-06T03:14:04.952Z,93.12
2022-10-06T03:15:04.944Z,93.32
2022-10-06T03:16:05.033Z,93.32
2022-10-06T03:17:04.915Z,93.43
2022-10-06T03:18:04.939Z,93.22
2022-10-06T03:19:04.928Z,93.12
2022-10-06T03:20:04.894Z,93.02
2022-10-06T03:21:04.894Z,92.71
2022-10-06T03:22:04.898Z,92.41
2022-10-06T03:23:04.878Z,92.61
2022-10-06T03:24:04.856Z,92.81
2022-10-06T03:25:04.820Z,92.61
2022-10-06T03:26:04.992Z,92.50
2022-10-06T03:27:04.802Z,92.50
2022-10-06T03:28:04.892Z,91.89
2022-10-06T03:29:10.494Z,91.89
2022-10-06T03:30:05.893Z,92.00
2022-10-06T03:31:04.791Z,91.89
2022-10-06T03:32:04.791Z,91.59
2022-10-06T03:33:04.750Z,91.59
2022-10-06T03:34:04.730Z,91.59
2022-10-06T03:35:04.754Z,91.39
2022-10-06T03:36:04.741Z,91.08
2022-10-06T03:37:04.701Z,91.28
2022-10-06T03:38:04.720Z,91.18
2022-10-06T03:39:04.683Z,91.39
2022-10-06T03:40:04.674Z,90.67
2022-10-06T03:41:04.699Z,90.06
2022-10-06T03:42:04.679Z,89.96
2022-10-06T03:43:04.669Z,90.47
2022-10-06T03:44:04.649Z,90.57
2022-10-06T03:45:04.609Z,90.47
2022-10-06T03:46:04.626Z,90.57
2022-10-06T03:47:04.641Z,90.57
2022-10-06T03:48:04.598Z,90.47
2022-10-06T03:49:04.960Z,90.06
2022-10-06T03:50:05.257Z,90.06
2022-10-06T03:51:04.946Z,90.26
2022-10-06T03:52:04.542Z,90.57
2022-10-06T03:53:04.533Z,90.77
2022-10-06T03:54:04.565Z,90.57
2022-10-06T03:55:04.549Z,90.71
2022-10-06T03:56:04.519Z,90.51
2022-10-06T03:57:05.263Z,90.71
2022-10-06T03:58:04.479Z,91.12
2022-10-06T03:59:04.448Z,91.22
2022-10-06T04:00:04.450Z,91.02
2022-10-06T04:01:04.502Z,91.02
2022-10-06T04:02:04.561Z,91.12
2022-10-06T04:03:04.410Z,91.22
2022-10-06T04:04:04.443Z,91.33
2022-10-06T04:05:04.401Z,91.53
2022-10-06T04:06:04.390Z,91.63
2022-10-06T04:07:04.389Z,91.74
2022-10-06T04:08:04.405Z,91.74
2022-10-06T04:09:04.350Z,91.63
2022-10-06T04:10:05.252Z,91.63
2022-10-06T04:11:04.373Z,91.06
2022-10-06T04:12:04.372Z,90.25
2022-10-06T04:13:04.301Z,90.55
2022-10-06T04:14:04.339Z,91.06
2022-10-06T04:15:04.310Z,91.27
2022-10-06T04:16:04.301Z,91.57
2022-10-06T04:17:04.261Z,91.78
2022-10-06T04:18:04.291Z,91.78
2022-10-06T04:19:04.250Z,91.67
2022-10-06T04:20:04.244Z,91.98
2022-10-06T04:21:04.210Z,91.98
2022-10-06T04:22:04.203Z,92.08
2022-10-06T04:23:04.185Z,92.39
2022-10-06T04:24:04.179Z,92.54
2022-10-06T04:25:04.150Z,92.54
2022-10-06T04:26:04.182Z,92.74
2022-10-06T04:27:04.129Z,92.84
2022-10-06T04:28:04.172Z,92.64
2022-10-06T04:29:04.110Z,92.64
2022-10-06T04:30:04.125Z,92.64
2022-10-06T04:31:04.123Z,92.54
2022-10-06T04:32:04.314Z,92.54
2022-10-06T04:33:04.083Z,92.64
2022-10-06T04:34:04.062Z,92.64
2022-10-06T04:35:04.061Z,92.74
2022-10-06T04:36:04.058Z,92.74
2022-10-06T04:37:04.843Z,92.64
2022-10-06T04:38:04.012Z,92.64
2022-10-06T04:39:04.014Z,92.74
2022-10-06T04:40:04.003Z,92.74
2022-10-06T04:41:03.998Z,92.64
2022-10-06T04:42:03.990Z,92.54
2022-10-06T04:43:04.205Z,92.33
2022-10-06T04:44:03.952Z,92.13
2022-10-06T04:45:03.951Z,91.82
2022-10-06T04:46:13.258Z,91.20
2022-10-06T04:47:05.062Z,91.20
2022-10-06T04:48:04.680Z,91.20
2022-10-06T04:49:03.910Z,91.20
2022-10-06T04:50:04.652Z,91.52
2022-10-06T04:51:03.879Z,91.52
2022-10-06T04:52:03.870Z,91.52
2022-10-06T04:53:04.713Z,91.61
2022-10-06T04:54:03.820Z,91.20
2022-10-06T04:55:03.829Z,91.31
2022-10-06T04:56:03.811Z,91.52
2022-10-06T04:57:03.814Z,91.52
2022-10-06T04:58:03.788Z,91.52
2022-10-06T04:59:03.781Z,91.31
2022-10-06T05:00:08.012Z,91.20
2022-10-06T05:01:04.789Z,91.20
2022-10-06T05:02:03.785Z,91.20
2022-10-06T05:03:03.767Z,91.31
2022-10-06T05:04:03.708Z,91.31
2022-10-06T05:05:03.718Z,91.20
2022-10-06T05:06:03.708Z,91.11
2022-10-06T05:07:03.704Z,91.20
2022-10-06T05:08:03.669Z,91.31
2022-10-06T05:09:03.679Z,91.31
2022-10-06T05:10:04.161Z,91.31
2022-10-06T05:11:04.525Z,91.52
2022-10-06T05:12:03.637Z,91.61
2022-10-06T05:13:03.699Z,91.52
2022-10-06T05:14:03.604Z,91.00
2022-10-06T05:15:03.681Z,90.90
2022-10-06T05:16:03.620Z,90.90
2022-10-06T05:17:03.602Z,90.90
2022-10-06T05:18:03.609Z,90.94
2022-10-06T05:19:03.579Z,91.15
2022-10-06T05:20:03.562Z,91.25
2022-10-06T05:21:06.671Z,91.46
2022-10-06T05:22:03.511Z,91.46
2022-10-06T05:23:03.528Z,91.56
2022-10-06T05:24:03.502Z,91.46
2022-10-06T05:25:03.547Z,91.56
2022-10-06T05:26:03.477Z,91.46
2022-10-06T05:27:03.508Z,91.46
2022-10-06T05:28:03.558Z,91.35
2022-10-06T05:29:03.460Z,91.35
2022-10-06T05:30:03.453Z,91.15
2022-10-06T05:31:03.430Z,91.25
2022-10-06T05:32:04.358Z,91.25
2022-10-06T05:33:03.441Z,91.25
2022-10-06T05:34:03.411Z,91.05
2022-10-06T05:35:03.399Z,90.74
2022-10-06T05:36:03.379Z,90.43
2022-10-06T05:37:03.555Z,90.43
2022-10-06T05:38:03.351Z,90.53
2022-10-06T05:39:03.379Z,90.64
2022-10-06T05:40:03.380Z,90.74
2022-10-06T05:41:03.332Z,90.64
2022-10-06T05:42:03.293Z,90.53
2022-10-06T05:43:03.284Z,90.53
2022-10-06T05:44:03.252Z,90.53
2022-10-06T05:45:03.323Z,90.53
2022-10-06T05:46:03.305Z,90.53
2022-10-06T05:47:03.237Z,90.53
2022-10-06T05:48:03.257Z,90.64
2022-10-06T05:49:03.222Z,90.64
2022-10-06T05:50:03.199Z,90.64
2022-10-06T05:51:03.194Z,90.53
2022-10-06T05:52:03.201Z,90.58
2022-10-06T05:53:03.941Z,90.78
2022-10-06T05:54:03.341Z,91.09
2022-10-06T05:55:03.160Z,90.88
2022-10-06T05:56:03.129Z,90.99
2022-10-06T05:57:03.152Z,90.99
2022-10-06T05:58:03.117Z,90.92
2022-10-06T05:59:03.111Z,90.82
2022-10-06T06:00:03.106Z,90.92
2022-10-06T06:01:03.091Z,91.13
2022-10-06T06:02:03.117Z,91.23
2022-10-06T06:03:03.154Z,91.44
2022-10-06T06:04:03.077Z,91.54
2022-10-06T06:05:03.067Z,91.54
2022-10-06T06:06:03.022Z,91.64
2022-10-06T06:07:03.033Z,91.74
2022-10-06T06:08:02.996Z,91.64
2022-10-06T06:09:02.991Z,91.74
2022-10-06T06:10:02.967Z,91.85
2022-10-06T06:11:02.993Z,91.95
2022-10-06T06:12:02.948Z,92.05
2022-10-06T06:13:02.952Z,91.95
2022-10-06T06:14:02.919Z,91.85
2022-10-06T06:15:02.912Z,91.64
2022-10-06T06:16:02.948Z,91.54
2022-10-06T06:17:02.973Z,91.54
2022-10-06T06:18:02.870Z,91.54
2022-10-06T06:19:02.913Z,91.54
2022-10-06T06:20:02.880Z,91.50
2022-10-06T06:21:02.907Z,91.50
2022-10-06T06:22:03.829Z,91.60
2022-10-06T06:23:02.884Z,91.60
2022-10-06T06:24:02.811Z,91.60
2022-10-06T06:25:02.832Z,91.60
2022-10-06T06:26:02.951Z,91.39
2022-10-06T06:27:03.064Z,91.09
2022-10-06T06:28:02.829Z,90.84
2022-10-06T06:29:02.790Z,90.64
2022-10-06T06:30:02.750Z,90.23
2022-10-06T06:31:02.785Z,89.51
2022-10-06T06:32:02.714Z,89.61
2022-10-06T06:33:03.556Z,89.82
2022-10-06T06:34:02.711Z,89.92
2022-10-06T06:35:02.703Z,89.20
2022-10-06T06:36:02.676Z,89.11
2022-10-06T06:37:07.493Z,88.85
2022-10-06T06:38:03.641Z,88.96
2022-10-06T06:39:02.641Z,89.06
2022-10-06T06:40:02.643Z,89.26
2022-10-06T06:41:02.640Z,89.26
2022-10-06T06:42:02.631Z,89.26
2022-10-06T06:43:02.608Z,88.85
2022-10-06T06:44:02.576Z,87.84
2022-10-06T06:45:02.598Z,88.00
2022-10-06T06:46:02.632Z,87.59
2022-10-06T06:47:02.579Z,87.59
2022-10-06T06:48:02.544Z,87.79
2022-10-06T06:49:02.529Z,87.90
2022-10-06T06:50:02.508Z,87.49
2022-10-06T06:51:02.504Z,86.91
2022-10-06T06:52:02.502Z,87.63
2022-10-06T06:53:02.523Z,87.43
2022-10-06T06:54:03.209Z,87.12
2022-10-06T06:55:03.238Z,87.32
2022-10-06T06:56:02.454Z,87.73
2022-10-06T06:57:02.459Z,87.84
2022-10-06T06:58:02.429Z,87.73
2022-10-06T06:59:02.443Z,87.73
2022-10-06T07:00:02.559Z,87.63
2022-10-06T07:01:02.446Z,87.32
2022-10-06T07:02:02.458Z,87.18
2022-10-06T07:03:02.399Z,86.57
2022-10-06T07:04:02.373Z,86.47
2022-10-06T07:05:02.392Z,86.36
2022-10-06T07:06:02.356Z,86.88
2022-10-06T07:07:02.331Z,86.88
2022-10-06T07:08:02.328Z,86.16
2022-10-06T07:09:02.327Z,85.55
2022-10-06T07:10:02.286Z,85.51
2022-10-06T07:11:02.339Z,85.82
2022-10-06T07:12:02.275Z,86.02
2022-10-06T07:13:02.271Z,86.12
2022-10-06T07:14:02.259Z,85.82
2022-10-06T07:15:02.249Z,85.82
2022-10-06T07:16:02.273Z,85.51
2022-10-06T07:17:02.256Z,84.90
2022-10-06T07:18:02.236Z,84.22
2022-10-06T07:19:02.989Z,84.33
2022-10-06T07:20:02.193Z,84.63
2022-10-06T07:21:02.210Z,85.04
2022-10-06T07:22:02.311Z,84.22
2022-10-06T07:23:02.170Z,84.42
2022-10-06T07:24:02.129Z,84.42
2022-10-06T07:25:02.140Z,84.90
2022-10-06T07:26:02.138Z,85.00
2022-10-06T07:27:02.124Z,84.18
2022-10-06T07:28:02.149Z,83.47
2022-10-06T07:29:02.118Z,83.78
2022-10-06T07:30:02.053Z,84.18
2022-10-06T07:31:02.180Z,83.87
2022-10-06T07:32:02.074Z,83.67
2022-10-06T07:33:02.068Z,83.78
2022-10-06T07:34:02.011Z,83.37
2022-10-06T07:35:02.096Z,83.57
2022-10-06T07:36:01.988Z,84.49
2022-10-06T07:37:04.284Z,84.08
2022-10-06T07:38:01.970Z,83.98
2022-10-06T07:39:01.978Z,83.98
2022-10-06T07:40:01.998Z,83.67
2022-10-06T07:42:02.922Z,83.30
2022-10-06T07:43:01.938Z,83.00
2022-10-06T07:44:07.142Z,83.40
2022-10-06T07:45:02.926Z,83.51
2022-10-06T07:46:01.939Z,83.71
2022-10-06T07:47:02.034Z,83.81
2022-10-06T07:48:01.890Z,84.01
2022-10-06T07:49:01.873Z,84.33
2022-10-06T07:50:01.844Z,84.33
2022-10-06T07:51:01.830Z,83.30
2022-10-06T07:52:01.828Z,83.30
2022-10-06T07:53:01.831Z,83.51
2022-10-06T07:54:01.817Z,83.81
2022-10-06T07:55:01.799Z,84.74
2022-10-06T07:56:01.770Z,84.63
2022-10-06T07:57:01.762Z,84.42
2022-10-06T07:58:01.748Z,84.53
2022-10-06T07:59:01.760Z,84.22
2022-10-06T08:00:03.290Z,84.83
2022-10-06T08:01:01.717Z,83.81
2022-10-06T08:02:01.812Z,82.89
2022-10-06T08:03:01.748Z,83.00
2022-10-06T08:04:01.667Z,83.51
2022-10-06T08:05:01.720Z,83.71
2022-10-06T08:06:01.651Z,83.61
2022-10-06T08:07:01.652Z,83.78
2022-10-06T08:08:01.637Z,83.67
2022-10-06T08:09:01.657Z,83.78
2022-10-06T08:10:01.601Z,82.55
2022-10-06T08:11:02.075Z,81.73
2022-10-06T08:12:01.594Z,81.94
2022-10-06T08:13:01.607Z,81.94
2022-10-06T08:14:01.598Z,82.31
2022-10-06T08:15:04.544Z,82.41
2022-10-06T08:16:03.307Z,82.10
2022-10-06T08:17:01.534Z,81.18
2022-10-06T08:18:01.550Z,80.74
2022-10-06T08:19:01.517Z,79.93
2022-10-06T08:20:01.480Z,80.54
2022-10-06T08:21:01.491Z,81.04
2022-10-06T08:22:04.789Z,80.43
2022-10-06T08:23:01.466Z,80.23
2022-10-06T08:24:01.441Z,79.89
2022-10-06T08:25:06.244Z,79.48
2022-10-06T08:26:02.731Z,78.26
2022-10-06T08:27:01.418Z,78.26
2022-10-06T08:28:01.460Z,78.87
2022-10-06T08:29:01.431Z,78.66
2022-10-06T08:30:01.377Z,78.73
2022-10-06T08:31:01.394Z,78.32
2022-10-06T08:32:01.415Z,76.69
2022-10-06T08:33:01.397Z,76.08
2022-10-06T08:34:01.339Z,75.92
2022-10-06T08:35:01.343Z,77.00
2022-10-06T08:36:01.318Z,76.69
2022-10-06T08:37:19.266Z,76.25
2022-10-06T08:38:02.287Z,77.78
2022-10-06T08:39:01.329Z,78.15
2022-10-06T08:40:01.264Z,76.11
2022-10-06T08:41:01.269Z,75.20
2022-10-06T08:42:01.238Z,76.07
2022-10-06T08:43:01.292Z,76.18
2022-10-06T08:44:01.239Z,73.50
2022-10-06T08:45:02.032Z,73.80
2022-10-06T08:46:01.217Z,72.99
2022-10-06T08:47:01.209Z,73.57
2022-10-06T08:48:02.127Z,72.75
2022-10-06T08:49:01.398Z,72.38
2022-10-06T08:50:01.168Z,72.69
2022-10-06T08:51:01.180Z,72.99
2022-10-06T08:52:01.319Z,73.09
2022-10-06T08:53:01.368Z,73.80
2022-10-06T08:54:01.327Z,73.60
2022-10-06T08:55:01.820Z,73.87
2022-10-06T08:56:01.268Z,72.65
2022-10-06T08:57:01.261Z,72.75
2022-10-06T08:58:01.324Z,72.85
2022-10-06T08:59:01.110Z,72.01
2022-10-06T09:00:01.198Z,71.40
2022-10-06T09:01:01.866Z,70.79
2022-10-06T09:02:01.092Z,71.40
2022-10-06T09:03:01.019Z,71.80
2022-10-06T09:04:01.011Z,72.41
2022-10-06T09:05:00.987Z,72.31
2022-10-06T09:06:01.932Z,71.80
2022-10-06T09:07:00.977Z,71.80
2022-10-06T09:08:00.968Z,71.09
2022-10-06T09:09:01.009Z,71.40
2022-10-06T09:10:01.116Z,71.60
2022-10-06T09:11:01.501Z,69.98
2022-10-06T09:12:00.978Z,70.21
2022-10-06T09:13:01.010Z,70.72
2022-10-06T09:14:01.148Z,71.36
2022-10-06T09:15:01.058Z,72.78
2022-10-06T09:16:01.035Z,72.55
2022-10-06T09:17:01.339Z,71.12
2022-10-06T09:18:01.107Z,71.94
2022-10-06T09:19:08.755Z,71.94
2022-10-06T09:20:02.056Z,71.60
2022-10-06T09:21:00.887Z,71.70
2022-10-06T09:22:00.957Z,71.16
2022-10-06T09:23:00.976Z,69.43
2022-10-06T09:24:01.228Z,70.01
2022-10-06T09:25:00.925Z,69.60
2022-10-06T09:26:00.878Z,70.15
2022-10-06T09:27:00.861Z,69.81
2022-10-06T09:28:01.060Z,68.19
2022-10-06T09:29:00.886Z,68.19
2022-10-06T09:30:00.878Z,67.55
2022-10-06T09:31:00.752Z,67.51
2022-10-06T09:32:00.807Z,66.33
2022-10-06T09:33:00.818Z,67.95
2022-10-06T09:34:00.789Z,67.85
2022-10-06T09:35:00.658Z,67.78
2022-10-06T09:36:00.620Z,67.17
2022-10-06T09:37:02.079Z,67.95
2022-10-06T09:38:05.692Z,66.26
2022-10-06T09:39:02.342Z,67.17
2022-10-06T09:40:00.586Z,66.39
2022-10-06T09:41:00.565Z,66.93
2022-10-06T09:42:00.598Z,67.03
2022-10-06T09:43:00.552Z,69.26
2022-10-06T09:44:00.566Z,67.13
2022-10-06T09:45:00.553Z,66.72
2022-10-06T09:46:00.540Z,67.84
2022-10-06T09:47:00.504Z,67.77
2022-10-06T09:48:00.488Z,67.94
2022-10-06T09:49:00.468Z,68.35
2022-10-06T09:50:00.838Z,67.61
2022-10-06T09:51:00.480Z,68.12
2022-10-06T09:52:00.522Z,68.42
2022-10-06T09:53:00.427Z,68.79
2022-10-06T09:54:00.438Z,68.96
2022-10-06T09:55:00.396Z,67.82
2022-10-06T09:56:00.435Z,68.73
2022-10-06T09:57:00.391Z,66.40
2022-10-06T09:58:00.415Z,65.86
2022-10-06T09:59:00.356Z,64.14
2022-10-06T10:00:00.432Z,63.63
2022-10-06T10:01:01.297Z,64.85
2022-10-06T10:02:00.430Z,63.63
2022-10-06T10:03:00.348Z,62.79
2022-10-06T10:04:20.530Z,61.47
2022-10-06T10:05:01.279Z,60.97
2022-10-06T10:06:00.290Z,60.94
2022-10-06T10:07:00.327Z,59.39
2022-10-06T10:08:00.277Z,59.32
2022-10-06T10:09:00.269Z,60.30
2022-10-06T10:10:00.263Z,61.79
2022-10-06T10:11:00.230Z,60.65
2022-10-06T10:12:00.342Z,59.44
2022-10-06T10:13:00.199Z,58.80
2022-10-06T10:14:00.201Z,59.89
2022-10-06T10:15:00.930Z,59.05
2022-10-06T10:16:00.226Z,58.85
2022-10-06T10:17:00.476Z,57.94
2022-10-06T10:18:00.901Z,55.21
2022-10-06T10:19:01.059Z,55.92
2022-10-06T10:20:00.456Z,55.52
2022-10-06T10:21:00.128Z,56.32
2022-10-06T10:22:00.290Z,56.02
2022-10-06T10:23:00.813Z,56.83
2022-10-06T10:24:00.081Z,56.20
2022-10-06T10:25:00.117Z,55.59
2022-10-06T10:26:00.063Z,54.38
2022-10-06T10:27:00.077Z,55.59
2022-10-06T10:28:00.157Z,54.68
2022-10-06T10:29:00.187Z,56.07
2022-10-06T10:30:00.084Z,53.58
2022-10-06T10:31:00.059Z,55.79
2022-10-06T10:32:00.009Z,54.58
2022-10-06T10:32:59.960Z,54.51
2022-10-06T10:34:11.843Z,55.01
2022-10-06T10:35:00.959Z,53.98
2022-10-06T10:36:00.022Z,55.09
2022-10-06T10:36:59.931Z,53.58
2022-10-06T10:37:59.930Z,52.47
2022-10-06T10:39:00.340Z,52.06
2022-10-06T10:39:59.957Z,52.49
2022-10-06T10:40:59.880Z,52.87
2022-10-06T10:41:59.868Z,53.17
2022-10-06T10:42:59.844Z,53.88
2022-10-06T10:44:03.945Z,52.76
2022-10-06T10:45:00.534Z,54.18
2022-10-06T10:45:59.890Z,54.66
2022-10-06T10:46:59.951Z,54.66
2022-10-06T10:47:59.820Z,53.65
2022-10-06T10:48:59.808Z,52.72
2022-10-06T10:49:59.802Z,54.13
2022-10-06T10:50:59.774Z,53.12
2022-10-06T10:51:59.753Z,51.05
2022-10-06T10:52:59.740Z,52.39
2022-10-06T10:54:00.102Z,51.71
2022-10-06T10:55:00.111Z,49.79
2022-10-06T10:55:59.726Z,51.10
2022-10-06T10:56:59.708Z,51.68
2022-10-06T10:57:59.696Z,51.98
2022-10-06T10:59:00.549Z,50.98
2022-10-06T10:59:59.691Z,52.67
2022-10-06T11:00:59.662Z,53.17
2022-10-06T11:01:59.694Z,53.17
2022-10-06T11:02:59.618Z,52.06
2022-10-06T11:03:59.623Z,52.41
2022-10-06T11:05:00.010Z,53.52
2022-10-06T11:05:59.606Z,53.12
2022-10-06T11:06:59.571Z,53.12
2022-10-06T11:07:59.581Z,53.32
2022-10-06T11:08:59.554Z,54.41
2022-10-06T11:09:59.554Z,52.39
2022-10-06T11:10:59.538Z,53.60
2022-10-06T11:11:59.550Z,53.30
2022-10-06T11:12:59.512Z,52.47
2022-10-06T11:13:59.512Z,51.38
2022-10-06T11:15:00.206Z,52.36
2022-10-06T11:15:59.579Z,51.56
2022-10-06T11:16:59.472Z,50.75
2022-10-06T11:17:59.482Z,51.07
2022-10-06T11:19:00.118Z,52.56
2022-10-06T11:19:59.716Z,53.17
2022-10-06T11:20:59.425Z,50.87
2022-10-06T11:21:59.500Z,52.49
2022-10-06T11:22:59.416Z,51.18
2022-10-06T11:23:59.402Z,52.16
2022-10-06T11:24:59.658Z,52.56
2022-10-06T11:25:59.376Z,49.94
2022-10-06T11:26:59.361Z,50.55
2022-10-06T11:27:59.383Z,50.75
2022-10-06T11:28:59.323Z,50.95
2022-10-06T11:29:59.693Z,50.75
2022-10-06T11:30:59.320Z,50.42
2022-10-06T11:31:59.347Z,50.32
2022-10-06T11:32:59.282Z,50.32
2022-10-06T11:33:59.295Z,51.03
2022-10-06T11:34:59.262Z,49.72
2022-10-06T11:35:59.284Z,48.91
2022-10-06T11:36:59.243Z,49.82
2022-10-06T11:37:59.242Z,49.92
2022-10-06T11:38:59.216Z,49.62
2022-10-06T11:40:00.361Z,48.69
2022-10-06T11:40:59.336Z,48.89
2022-10-06T11:41:59.195Z,48.41
2022-10-06T11:42:59.183Z,48.81
2022-10-06T11:43:59.171Z,50.42
2022-10-06T11:44:59.341Z,49.82
2022-10-06T11:45:59.198Z,50.02
2022-10-06T11:46:59.138Z,50.30
2022-10-06T11:47:59.144Z,50.20
2022-10-06T11:48:59.103Z,50.50
2022-10-06T11:49:59.103Z,47.78
2022-10-06T11:50:59.077Z,49.59
2022-10-06T11:52:01.622Z,48.49
2022-10-06T11:52:59.066Z,48.00
2022-10-06T11:53:59.065Z,49.01
2022-10-06T11:54:59.448Z,47.14
2022-10-06T11:55:59.038Z,48.47
2022-10-06T11:56:59.003Z,49.58
2022-10-06T11:58:08.643Z,51.58
2022-10-06T11:59:00.011Z,51.28
2022-10-06T11:59:58.993Z,49.84
2022-10-06T12:00:59.739Z,50.04
2022-10-06T12:01:59.995Z,48.93
2022-10-06T12:02:59.084Z,49.21
2022-10-06T12:03:58.936Z,49.72
2022-10-06T12:04:59.254Z,48.81
2022-10-06T12:05:59.109Z,48.89
2022-10-06T12:06:59.697Z,48.99
2022-10-06T12:07:58.885Z,48.08
2022-10-06T12:08:58.864Z,48.18
2022-10-06T12:09:58.893Z,46.77
2022-10-06T12:10:58.855Z,46.79
2022-10-06T12:11:58.860Z,46.71
2022-10-06T12:13:07.977Z,49.31
2022-10-06T12:15:06.532Z,47.90
2022-10-06T12:17:19.284Z,48.10
2022-10-06T12:18:00.243Z,47.88
2022-10-06T12:18:58.754Z,46.37
2022-10-06T12:19:59.686Z,47.70
2022-10-06T12:20:59.467Z,47.17
2022-10-06T12:21:59.504Z,46.57
2022-10-06T12:22:58.705Z,48.08
2022-10-06T12:23:58.721Z,47.98
2022-10-06T12:24:58.960Z,47.17
2022-10-06T12:25:58.678Z,47.55
2022-10-06T12:26:58.684Z,47.25
2022-10-06T12:27:58.768Z,47.96
2022-10-06T12:28:58.729Z,46.17
2022-10-06T12:29:59.037Z,47.78
2022-10-06T12:30:58.764Z,48.58
2022-10-06T12:31:58.683Z,48.69
2022-10-06T12:32:58.588Z,48.89
2022-10-06T12:33:58.607Z,47.17
2022-10-06T12:34:59.533Z,48.69
2022-10-06T12:35:58.566Z,48.49
2022-10-06T12:36:58.547Z,48.28
2022-10-06T12:37:58.549Z,47.47
2022-10-06T12:38:58.532Z,47.45
2022-10-06T12:39:58.677Z,48.36
2022-10-06T12:40:59.480Z,45.86
2022-10-06T12:41:58.631Z,47.90
2022-10-06T12:42:58.467Z,47.80
2022-10-06T12:43:58.467Z,47.80
2022-10-06T12:44:58.702Z,48.81
2022-10-06T12:45:58.541Z,48.81
2022-10-06T12:46:58.432Z,49.49
2022-10-06T12:47:58.424Z,48.49
2022-10-06T12:48:58.398Z,48.89
2022-10-06T12:49:58.423Z,48.00
2022-10-06T12:50:58.427Z,49.21
2022-10-06T12:52:00.661Z,49.92
2022-10-06T12:52:59.356Z,49.79
2022-10-06T12:53:58.382Z,49.19
2022-10-06T12:54:58.589Z,48.36